Augusta, New Jersey
Current Conditions -  °F | °C
As of 9:36 AM on Tuesday 27 Jan 2015 (Local Time) from KFWN Reporting Station
Light Snow Light Snow  
Wind Chill: 13°   Ceiling: 2000
Heat Index: 20°   Visibility: 1.5mi
Dew Point: 11°   Wind: 5mph
Humidity: 68%   Direction: 340°NNW
Pressure: 29.73"   Gusts: NA
Location:  41.13°N, 74.73°W
Report Text: KFWN 271436Z AUTO 34004KT 1 1/2SM -SN OVC020 M07/M12 A2973 RMK AO2 P0000 T10671117
Loading
Personal Weather Stations






























Interactive Weather Map New forecast layout! Learn more

10-Day Weather Forecast

Advertisements
Track Severe Weather on mobile